createdAt,value
2023-04-01T00:01:45.781Z,80.21
2023-04-01T00:04:12.556Z,80.73
2023-04-01T00:06:39.364Z,80.42
2023-04-01T00:09:06.047Z,80.72
2023-04-01T00:11:33.654Z,81.29
2023-04-01T00:14:02.791Z,81.90
2023-04-01T00:16:29.570Z,81.46
2023-04-01T00:18:56.350Z,80.82
2023-04-01T00:21:23.606Z,81.02
2023-04-01T00:23:51.658Z,80.50
2023-04-01T00:26:21.519Z,80.89
2023-04-01T00:28:48.820Z,81.01
2023-04-01T00:31:16.133Z,80.44
2023-04-01T00:33:43.027Z,80.72
2023-04-01T00:36:18.835Z,80.74
2023-04-01T00:38:45.852Z,80.71
2023-04-01T00:41:15.963Z,80.34
2023-04-01T00:43:44.603Z,80.45
2023-04-01T00:46:11.350Z,80.99
2023-04-01T00:48:41.213Z,81.63
2023-04-01T00:51:18.859Z,81.42
2023-04-01T00:53:50.207Z,81.61
2023-04-01T00:56:19.942Z,81.65
2023-04-01T00:58:53.319Z,82.02
2023-04-01T01:01:21.958Z,81.89
2023-04-01T01:03:48.737Z,82.67
2023-04-01T01:06:24.903Z,82.68
2023-04-01T01:09:10.619Z,82.18
2023-04-01T01:11:56.072Z,81.49
2023-04-01T01:14:34.990Z,82.05
2023-04-01T01:17:08.852Z,81.91
2023-04-01T01:19:49.113Z,82.22
2023-04-01T01:22:46.346Z,82.92
2023-04-01T01:25:13.012Z,82.51
2023-04-01T01:27:40.806Z,83.49
2023-04-01T01:30:22.754Z,83.61
2023-04-01T01:32:54.044Z,82.62
2023-04-01T01:35:40.387Z,81.87
2023-04-01T01:38:19.673Z,82.07
2023-04-01T01:40:55.589Z,82.05
2023-04-01T01:43:26.303Z,81.80
2023-04-01T01:45:58.957Z,82.03
2023-04-01T01:48:26.579Z,82.90
2023-04-01T01:50:54.086Z,82.78
2023-04-01T01:53:21.506Z,83.05
2023-04-01T01:55:48.986Z,83.03
2023-04-01T01:58:22.355Z,83.79
2023-04-01T02:00:56.838Z,83.67
2023-04-01T02:03:26.410Z,84.35
2023-04-01T02:05:55.250Z,84.46
2023-04-01T02:08:28.054Z,84.24
2023-04-01T02:11:01.176Z,84.82
2023-04-01T02:13:39.709Z,84.59
2023-04-01T02:16:13.304Z,85.14
2023-04-01T02:18:41.458Z,85.57
2023-04-01T02:21:09.230Z,85.82
2023-04-01T02:23:37.194Z,85.98
2023-04-01T02:26:07.253Z,85.28
2023-04-01T02:28:38.347Z,84.82
2023-04-01T02:31:05.457Z,85.68
2023-04-01T02:33:32.327Z,85.50
2023-04-01T02:35:59.463Z,85.97
2023-04-01T02:38:26.437Z,86.89
2023-04-01T02:40:59.105Z,86.61
2023-04-01T02:43:26.062Z,86.67
2023-04-01T02:45:52.865Z,86.61
2023-04-01T02:48:19.627Z,85.42
2023-04-01T02:50:46.837Z,84.88
2023-04-01T02:53:13.683Z,85.25
2023-04-01T02:55:40.458Z,85.06
2023-04-01T02:58:07.641Z,85.91
2023-04-01T03:00:34.754Z,86.04
2023-04-01T03:03:01.706Z,86.26
2023-04-01T03:05:28.505Z,86.44
2023-04-01T03:07:57.641Z,86.24
2023-04-01T03:10:24.385Z,86.74
2023-04-01T03:12:52.099Z,86.42
2023-04-01T03:15:18.810Z,86.32
2023-04-01T03:17:45.557Z,86.08
2023-04-01T03:20:12.952Z,86.01
2023-04-01T03:22:42.308Z,85.65
2023-04-01T03:25:11.122Z,86.03
2023-04-01T03:27:38.602Z,86.33
2023-04-01T03:30:06.941Z,87.19
2023-04-01T03:32:39.896Z,87.43
2023-04-01T03:35:07.161Z,87.10
2023-04-01T03:37:33.925Z,87.39
2023-04-01T03:40:00.958Z,86.89
2023-04-01T03:42:27.730Z,87.58
2023-04-01T03:44:54.639Z,87.42
2023-04-01T03:47:21.385Z,87.68
2023-04-01T03:49:48.216Z,87.85
2023-04-01T03:52:14.982Z,87.59
2023-04-01T03:54:41.703Z,87.72
2023-04-01T03:57:08.662Z,87.82
2023-04-01T03:59:35.706Z,87.61
2023-04-01T04:02:03.058Z,87.88
2023-04-01T04:04:31.215Z,87.47
2023-04-01T04:06:58.070Z,88.17
2023-04-01T04:09:28.624Z,88.34
2023-04-01T04:11:55.479Z,88.19
2023-04-01T04:14:22.200Z,88.60
2023-04-01T04:16:49.410Z,88.04
2023-04-01T04:19:16.184Z,88.23
2023-04-01T04:21:43.229Z,89.00
2023-04-01T04:24:10.847Z,88.48
2023-04-01T04:26:57.797Z,88.45
2023-04-01T04:29:24.517Z,89.01
2023-04-01T04:31:51.577Z,88.83
2023-04-01T04:34:19.562Z,88.67
2023-04-01T04:36:46.298Z,88.64
2023-04-01T04:39:13.539Z,88.59
2023-04-01T04:41:42.483Z,89.50
2023-04-01T04:44:09.303Z,89.46
2023-04-01T04:46:37.247Z,89.55
2023-04-01T04:49:14.023Z,89.21
2023-04-01T04:51:40.897Z,89.42
2023-04-01T04:54:08.473Z,88.96
2023-04-01T04:57:01.357Z,89.42
2023-04-01T04:59:32.628Z,89.10
2023-04-01T05:02:05.823Z,89.07
2023-04-01T05:04:36.762Z,88.75
2023-04-01T05:07:04.836Z,89.22
2023-04-01T05:09:33.177Z,88.21
2023-04-01T05:11:59.949Z,88.29
2023-04-01T05:14:31.227Z,88.33
2023-04-01T05:17:05.810Z,88.31
2023-04-01T05:19:32.837Z,87.64
2023-04-01T05:21:59.951Z,87.14
2023-04-01T05:24:26.748Z,86.71
2023-04-01T05:26:55.826Z,86.49
2023-04-01T05:29:24.273Z,86.39
2023-04-01T05:31:57.187Z,85.97
2023-04-01T05:34:23.953Z,85.94
2023-04-01T05:36:51.325Z,85.62
2023-04-01T05:39:18.066Z,85.41
2023-04-01T05:41:46.121Z,85.11
2023-04-01T05:44:13.588Z,84.96
2023-04-01T05:46:40.344Z,84.62
2023-04-01T05:49:17.036Z,83.70
2023-04-01T05:51:43.882Z,82.76
2023-04-01T05:54:10.774Z,82.48
2023-04-01T05:56:38.469Z,82.22
2023-04-01T05:59:07.324Z,80.36
2023-04-01T06:01:34.044Z,80.84
2023-04-01T06:04:01.129Z,80.02
2023-04-01T06:06:29.703Z,79.37
2023-04-01T06:09:24.749Z,79.05
2023-04-01T06:12:38.702Z,79.04
2023-04-01T06:15:24.238Z,78.09
2023-04-01T06:18:16.288Z,78.10
2023-04-01T06:21:21.050Z,76.58
2023-04-01T06:24:01.876Z,77.04
2023-04-01T06:26:54.770Z,77.17
2023-04-01T06:29:33.670Z,76.41
2023-04-01T06:32:23.020Z,76.16
2023-04-01T06:35:14.618Z,76.26
2023-04-01T06:38:09.438Z,75.59
2023-04-01T06:40:51.346Z,76.00
2023-04-01T06:43:35.077Z,75.49
2023-04-01T06:46:23.842Z,74.87
2023-04-01T06:49:51.073Z,74.67
2023-04-01T06:53:01.547Z,74.13
2023-04-01T06:56:12.861Z,74.28
2023-04-01T06:59:15.217Z,73.69
2023-04-01T07:01:54.258Z,74.61
2023-04-01T07:04:29.549Z,72.49
2023-04-01T07:07:06.074Z,71.90
2023-04-01T07:09:38.162Z,71.44
2023-04-01T07:12:35.024Z,71.42
2023-04-01T07:15:22.477Z,69.57
2023-04-01T07:17:55.825Z,69.79
2023-04-01T07:20:33.167Z,70.56
2023-04-01T07:23:03.938Z,70.33
2023-04-01T07:26:01.000Z,70.77
2023-04-01T07:28:58.112Z,69.77
2023-04-01T07:31:57.865Z,71.39
2023-04-01T07:34:53.810Z,70.71
2023-04-01T07:37:30.026Z,71.31
2023-04-01T07:40:12.316Z,71.58
2023-04-01T07:43:10.876Z,72.11
2023-04-01T07:46:10.069Z,70.72
2023-04-01T07:48:54.270Z,70.61
2023-04-01T07:51:48.925Z,70.95
2023-04-01T07:54:24.381Z,70.34
2023-04-01T07:57:16.636Z,70.66
2023-04-01T08:00:11.009Z,70.25
2023-04-01T08:03:10.387Z,70.72
2023-04-01T08:06:08.487Z,70.70
2023-04-01T08:08:50.482Z,69.92
2023-04-01T08:12:06.597Z,69.28
2023-04-01T08:15:00.680Z,69.61
2023-04-01T08:18:12.197Z,67.97
2023-04-01T08:20:49.768Z,67.75
2023-04-01T08:23:19.677Z,67.86
2023-04-01T08:25:55.693Z,67.48
2023-04-01T08:28:36.040Z,67.77
2023-04-01T08:31:15.097Z,67.30
2023-04-01T08:33:45.791Z,66.83
2023-04-01T08:36:20.626Z,67.21
2023-04-01T08:39:15.582Z,66.78
2023-04-01T08:42:01.011Z,67.43
2023-04-01T08:45:07.621Z,67.39
2023-04-01T08:47:43.717Z,66.91
2023-04-01T08:50:30.647Z,66.15
2023-04-01T08:53:30.524Z,66.23
2023-04-01T08:56:04.587Z,67.15
2023-04-01T08:58:53.386Z,66.15
2023-04-01T09:01:46.217Z,66.00
2023-04-01T09:04:47.087Z,65.92
2023-04-01T09:07:50.894Z,66.35
2023-04-01T09:10:29.925Z,66.52
2023-04-01T09:13:16.551Z,66.35
2023-04-01T09:16:08.311Z,65.23
2023-04-01T09:18:57.072Z,65.65
2023-04-01T09:21:45.976Z,65.01
2023-04-01T09:24:35.935Z,64.86
2023-04-01T09:27:03.154Z,65.48
2023-04-01T09:29:45.328Z,65.72
2023-04-01T09:32:43.553Z,63.44
2023-04-01T09:35:42.323Z,63.30
2023-04-01T09:38:29.926Z,63.79
2023-04-01T09:41:00.057Z,62.15
2023-04-01T09:44:11.141Z,62.47
2023-04-01T09:51:33.837Z,62.96
2023-04-01T09:54:13.339Z,62.92
2023-04-01T09:57:19.753Z,63.50
2023-04-01T10:00:27.719Z,63.39
2023-04-01T10:03:38.124Z,62.13
2023-04-01T10:06:25.190Z,60.75
2023-04-01T10:09:21.303Z,59.84
2023-04-01T10:11:57.157Z,59.34
2023-04-01T10:14:34.983Z,59.88
2023-04-01T10:17:17.789Z,60.83
2023-04-01T10:19:56.215Z,60.41
2023-04-01T10:22:35.457Z,59.85
2023-04-01T10:25:39.533Z,57.95
2023-04-01T10:28:48.904Z,56.48
2023-04-01T10:31:42.751Z,55.91
2023-04-01T10:34:28.053Z,54.92
2023-04-01T10:36:57.331Z,55.03
2023-04-01T10:40:15.636Z,54.77
2023-04-01T10:43:44.399Z,53.98
2023-04-01T10:46:50.647Z,56.43
2023-04-01T10:49:24.357Z,55.38
2023-04-01T10:52:19.163Z,55.17
2023-04-01T10:55:45.836Z,54.51
2023-04-01T10:59:16.366Z,54.50
2023-04-01T11:02:37.033Z,53.86
2023-04-01T11:05:59.512Z,52.25
2023-04-01T11:08:49.166Z,52.53
2023-04-01T11:11:26.765Z,51.71
2023-04-01T11:14:27.682Z,50.60
2023-04-01T11:17:13.029Z,50.45
2023-04-01T11:20:01.686Z,49.98
2023-04-01T11:22:54.350Z,49.78
2023-04-01T11:25:46.201Z,49.41
2023-04-01T11:29:05.027Z,49.68
2023-04-01T11:31:53.586Z,49.92
2023-04-01T11:34:52.034Z,50.64
2023-04-01T11:37:50.058Z,51.37
2023-04-01T11:40:59.546Z,51.07
2023-04-01T11:44:13.151Z,50.86
2023-04-01T11:47:15.608Z,51.10
2023-04-01T11:50:00.853Z,51.87
2023-04-01T11:52:54.888Z,51.51
2023-04-01T11:55:43.436Z,50.92
2023-04-01T11:58:22.315Z,49.78
2023-04-01T12:01:07.719Z,50.11
2023-04-01T12:03:52.476Z,49.98
2023-04-01T12:06:31.371Z,49.72
2023-04-01T12:09:31.178Z,49.90
2023-04-01T12:12:19.900Z,49.88
2023-04-01T12:14:59.445Z,49.49
2023-04-01T12:17:32.225Z,49.01
2023-04-01T12:20:14.121Z,48.08
2023-04-01T12:23:02.692Z,48.29
2023-04-01T12:25:48.810Z,48.37
2023-04-01T12:28:18.615Z,47.14
2023-04-01T12:31:07.138Z,47.32
2023-04-01T12:34:15.312Z,47.94
2023-04-01T12:37:18.979Z,48.09
2023-04-01T12:39:57.602Z,48.86
2023-04-01T12:42:36.586Z,48.14
2023-04-01T12:45:06.644Z,48.53
2023-04-01T12:47:50.615Z,48.66
2023-04-01T12:50:18.145Z,48.63
2023-04-01T12:52:44.774Z,48.40
2023-04-01T12:55:42.336Z,48.49
2023-04-01T12:58:33.434Z,49.32
2023-04-01T13:01:32.686Z,48.47
2023-04-01T13:04:43.592Z,48.64
2023-04-01T13:07:24.268Z,48.88
2023-04-01T13:10:03.940Z,49.15
2023-04-01T13:13:18.237Z,49.49
2023-04-01T13:15:51.409Z,49.94
2023-04-01T13:18:30.599Z,47.94
2023-04-01T13:21:13.668Z,48.05
2023-04-01T13:23:55.106Z,47.78
2023-04-01T13:26:36.962Z,48.62
2023-04-01T13:29:15.424Z,48.85
2023-04-01T13:31:56.900Z,49.34
2023-04-01T13:34:54.691Z,50.12
2023-04-01T13:37:36.535Z,48.20
2023-04-01T13:40:14.853Z,47.51
2023-04-01T13:42:50.514Z,47.81
2023-04-01T13:45:24.858Z,46.63
2023-04-01T13:48:19.504Z,46.46
2023-04-01T13:50:55.506Z,46.21
2023-04-01T13:53:59.802Z,45.31
2023-04-01T13:57:10.687Z,45.89
2023-04-01T13:59:43.706Z,45.90
2023-04-01T14:02:35.042Z,44.74
2023-04-01T14:05:42.157Z,45.43
2023-04-01T14:08:15.738Z,46.38
2023-04-01T14:11:02.197Z,44.69
2023-04-01T14:13:36.471Z,43.97
2023-04-01T14:16:47.731Z,44.12
2023-04-01T14:19:49.685Z,44.31
2023-04-01T14:22:35.305Z,44.16
2023-04-01T14:25:28.897Z,43.57
2023-04-01T14:27:59.067Z,43.05
2023-04-01T14:30:45.058Z,43.53
2023-04-01T14:33:27.765Z,43.55
2023-04-01T14:36:17.492Z,42.55
2023-04-01T14:39:05.638Z,42.94
2023-04-01T14:42:09.125Z,43.67
2023-04-01T14:44:49.472Z,44.59
2023-04-01T14:47:19.546Z,44.94
2023-04-01T14:49:49.458Z,45.12
2023-04-01T14:52:43.815Z,45.30
2023-04-01T14:55:44.297Z,45.25
2023-04-01T14:58:13.263Z,46.10
2023-04-01T15:01:00.076Z,45.79
2023-04-01T15:03:54.981Z,45.82
2023-04-01T15:06:55.929Z,46.71
2023-04-01T15:09:44.957Z,46.18
2023-04-01T15:12:35.425Z,46.38
2023-04-01T15:15:38.145Z,46.53
2023-04-01T15:18:35.856Z,46.97
2023-04-01T15:21:31.435Z,47.35
2023-04-01T15:24:07.167Z,48.16
2023-04-01T15:26:51.003Z,49.24
2023-04-01T15:29:46.022Z,48.69
2023-04-01T15:32:26.149Z,50.45
2023-04-01T15:35:27.944Z,51.23
2023-04-01T15:38:09.223Z,51.22
2023-04-01T15:40:50.011Z,51.61
2023-04-01T15:43:34.545Z,52.04
2023-04-01T15:46:28.716Z,53.11
2023-04-01T15:49:13.509Z,53.06
2023-04-01T15:52:02.180Z,53.12
2023-04-01T15:54:50.129Z,52.88
2023-04-01T15:57:38.151Z,53.41
2023-04-01T16:00:29.684Z,54.00
2023-04-01T16:03:22.570Z,54.34
2023-04-01T16:06:21.162Z,54.52
2023-04-01T16:09:29.715Z,54.43
2023-04-01T16:12:12.631Z,54.74
2023-04-01T16:14:51.178Z,55.13
2023-04-01T16:17:38.603Z,54.78
2023-04-01T16:20:19.342Z,54.76
2023-04-01T16:22:57.248Z,55.11
2023-04-01T16:25:45.015Z,55.55
2023-04-01T16:28:38.781Z,56.08
2023-04-01T16:31:30.801Z,56.90
2023-04-01T16:34:07.385Z,57.23
2023-04-01T16:36:33.990Z,57.48
2023-04-01T16:39:15.156Z,57.45
2023-04-01T16:41:50.903Z,58.34
2023-04-01T16:44:21.848Z,60.02
2023-04-01T16:47:11.223Z,60.56
2023-04-01T16:49:55.980Z,61.10
2023-04-01T16:53:02.359Z,61.53
2023-04-01T16:56:15.818Z,62.51
2023-04-01T16:59:15.359Z,63.06
2023-04-01T17:01:56.808Z,64.24
2023-04-01T17:04:40.232Z,65.23
2023-04-01T17:07:38.638Z,66.11
2023-04-01T17:10:36.800Z,67.05
2023-04-01T17:13:35.038Z,67.06
2023-04-01T17:16:29.209Z,67.46
2023-04-01T17:19:06.467Z,68.46
2023-04-01T17:22:07.425Z,68.86
2023-04-01T17:25:05.705Z,68.67
2023-04-01T17:27:49.763Z,69.72
2023-04-01T17:30:58.339Z,70.81
2023-04-01T17:33:41.456Z,72.32
2023-04-01T17:36:39.564Z,73.42
2023-04-01T17:39:25.115Z,73.99
2023-04-01T17:42:36.822Z,75.46
2023-04-01T17:45:39.589Z,76.37
2023-04-01T17:48:18.542Z,76.72
2023-04-01T17:51:29.007Z,77.04
2023-04-01T17:54:17.655Z,77.02
2023-04-01T17:57:14.452Z,77.48
2023-04-01T17:59:53.275Z,77.50
2023-04-01T18:02:33.024Z,77.92
2023-04-01T18:05:28.061Z,78.31
2023-04-01T18:08:01.187Z,78.53
2023-04-01T18:10:40.047Z,79.26
2023-04-01T18:13:34.775Z,79.11
2023-04-01T18:16:16.911Z,80.44
2023-04-01T18:19:06.879Z,80.41
2023-04-01T18:21:48.186Z,80.41
2023-04-01T18:24:23.779Z,80.93
2023-04-01T18:27:02.163Z,81.49
2023-04-01T18:30:09.070Z,81.70
2023-04-01T18:32:51.491Z,81.72
2023-04-01T18:35:46.061Z,81.72
2023-04-01T18:38:18.227Z,82.45
2023-04-01T18:41:15.368Z,83.07
2023-04-01T18:44:16.605Z,83.40
2023-04-01T18:47:02.146Z,84.18
2023-04-01T18:49:44.106Z,83.93
2023-04-01T18:52:19.049Z,83.78
2023-04-01T18:55:16.816Z,84.14
2023-04-01T18:58:01.273Z,84.84
2023-04-01T19:01:02.084Z,84.92
2023-04-01T19:03:53.383Z,86.08
2023-04-01T19:06:27.633Z,85.69
2023-04-01T19:09:16.068Z,86.12
2023-04-01T19:12:01.411Z,86.55
2023-04-01T19:14:49.432Z,86.58
2023-04-01T19:18:00.514Z,86.48
2023-04-01T19:20:35.614Z,87.93
2023-04-01T19:23:37.422Z,88.18
2023-04-01T19:26:47.361Z,87.99
2023-04-01T19:29:38.220Z,87.89
2023-04-01T19:32:29.723Z,87.88
2023-04-01T19:35:24.706Z,88.59
2023-04-01T19:38:01.520Z,88.56
2023-04-01T19:40:53.745Z,89.34
2023-04-01T19:43:50.565Z,89.00
2023-04-01T19:46:41.889Z,88.78
2023-04-01T19:49:31.794Z,89.43
2023-04-01T19:52:34.899Z,89.10
2023-04-01T19:55:25.838Z,89.70
2023-04-01T19:58:06.506Z,90.32
2023-04-01T20:00:45.923Z,90.68
2023-04-01T20:03:45.260Z,90.46
2023-04-01T20:06:24.342Z,90.55
2023-04-01T20:09:22.118Z,91.27
2023-04-01T20:11:49.106Z,91.18
2023-04-01T20:14:37.884Z,92.17
2023-04-01T20:17:31.950Z,92.32
2023-04-01T20:20:10.661Z,92.34
2023-04-01T20:22:52.484Z,92.23
2023-04-01T20:25:23.083Z,91.75
2023-04-01T20:28:23.688Z,91.61
2023-04-01T20:31:04.554Z,91.34
2023-04-01T20:33:56.245Z,92.07
2023-04-01T20:36:39.157Z,91.66
2023-04-01T20:39:30.070Z,91.76
2023-04-01T20:42:36.708Z,91.69
2023-04-01T20:45:15.093Z,91.75
2023-04-01T20:48:09.311Z,91.54
2023-04-01T20:51:28.410Z,91.60
2023-04-01T20:54:10.634Z,91.48
2023-04-01T20:56:44.444Z,91.68
2023-04-01T20:59:47.685Z,91.03
2023-04-01T21:02:52.414Z,91.08
2023-04-01T21:05:19.481Z,90.55
2023-04-01T21:08:09.697Z,90.26
2023-04-01T21:10:49.397Z,90.07
2023-04-01T21:13:38.580Z,90.58
2023-04-01T21:19:29.715Z,89.62
2023-04-01T21:22:17.736Z,89.59
2023-04-01T21:25:12.795Z,89.19
2023-04-01T21:28:14.125Z,89.34
2023-04-01T21:31:17.340Z,89.72
2023-04-01T21:34:44.536Z,89.68
2023-04-01T21:37:44.068Z,90.05
2023-04-01T21:40:38.206Z,90.26
2023-04-01T21:43:26.854Z,90.67
2023-04-01T21:46:15.403Z,90.62
2023-04-01T21:49:16.061Z,90.16
2023-04-01T21:51:52.805Z,90.13
2023-04-01T21:54:43.583Z,90.22
2023-04-01T21:57:37.935Z,90.47
2023-04-01T22:00:18.465Z,90.37
2023-04-01T22:02:56.833Z,90.88
2023-04-01T22:05:35.125Z,91.28
2023-04-01T22:08:37.347Z,91.32
2023-04-01T22:11:24.632Z,91.25
2023-04-01T22:13:58.351Z,91.25
2023-04-01T22:16:43.452Z,91.16
2023-04-01T22:19:21.084Z,91.51
2023-04-01T22:22:04.110Z,91.16
2023-04-01T22:25:05.996Z,91.75
2023-04-01T22:27:53.745Z,91.43
2023-04-01T22:30:28.031Z,91.51
2023-04-01T22:33:06.972Z,91.57
2023-04-01T22:36:02.081Z,91.95
2023-04-01T22:38:35.068Z,91.46
2023-04-01T22:41:46.358Z,91.50
2023-04-01T22:44:57.452Z,91.05
2023-04-01T22:47:56.425Z,91.74
2023-04-01T22:50:26.518Z,91.45
2023-04-01T22:53:27.502Z,91.67
2023-04-01T22:55:54.833Z,91.68
2023-04-01T22:58:35.232Z,91.73
2023-04-01T23:01:07.847Z,91.26
2023-04-01T23:03:41.362Z,91.36
2023-04-01T23:06:16.890Z,91.34
2023-04-01T23:08:47.249Z,91.77
2023-04-01T23:11:19.250Z,91.41
2023-04-01T23:13:53.781Z,91.76
2023-04-01T23:16:33.845Z,91.29
2023-04-01T23:19:19.253Z,91.07
2023-04-01T23:21:54.364Z,91.22
2023-04-01T23:24:28.278Z,90.75
2023-04-01T23:27:03.449Z,90.25
2023-04-01T23:29:30.452Z,90.39
2023-04-01T23:32:28.192Z,89.92
2023-04-01T23:35:18.256Z,90.39
2023-04-01T23:37:45.201Z,89.92
2023-04-01T23:40:14.593Z,89.79
2023-04-01T23:42:42.370Z,89.75
2023-04-01T23:45:21.616Z,89.51
2023-04-01T23:50:32.287Z,89.30
2023-04-01T23:53:03.433Z,89.57
2023-04-01T23:55:34.778Z,89.26
2023-04-01T23:58:17.860Z,89.30
